Grand Blanc, MI (48439)

10:37 PM EDT on September 04, 2015 (GMT -0400)
Creekside Village | | Change Station
CLOSE
Current Station
Personal Weather Station
Location: Grand Blanc, MI
Elevation: 886 ft
Nearby Weather Stations

Elev 886 ft 42.90 °N, 83.62 °W | Updated 8 minutes ago

Overcast
Overcast
71.6 °F
Feels Like 71.6 °F
N
2.2
Wind Variable Wind from South

Today
High -- | Low -- °F
--% Chance of Precip.
Yesterday
High -- | Low -- °F
Precip. -- in
7:02 AM 8:04 PM
Waning Gibbous, 53% visible
Pressure 30.06 in
Visibility 10.0 miles
Clouds Overcast 5500 ft
Dew Point 68 °F
Humidity 89%
Rainfall 0.00 in
Snow Depth Not available.
UV 0 out of 12
Pollen 9.40 out of 12
Air Quality Not available.
Flu Activity Not available.
METAR KFNT 050153Z 10004KT 10SM OVC055 24/21 A3007 RMK AO2 SLP177 T02440206
Pressure 30.06 in
Visibility 10.0 miles
Clouds Overcast 5500 ft
Dew Point 68 °F
Humidity 89%
Rainfall 0.00 in
Snow Depth Not available.
UV 0 out of 12
Pollen 9.40 out of 12
Air Quality Not available.
Flu Activity Not available.
METAR KFNT 050153Z 10004KT 10SM OVC055 24/21 A3007 RMK AO2 SLP177 T02440206

10-Day Weather Forecast

×

Almanac

Astronomy

Sep. 04, 2015 Rise Set
Actual Time
Civil Twilight
Nautical Twilight
Astronomical Twilight
Moon
Length of Visible Light
Length of Day
Tomorrow will be .
, % of the Moon is Illuminated

Today's Extremes

State Highs State Lows

Community

WunderPhotos

Upload Photos

1,852,393 photos uploaded!

WunderBlogs® & News

Nearby

Air Quality

  Air Quality AQ Index Pollutant
Not available.

Snow Depth

Station Depth Elevation

Earthquake Activity

City Distance Mag. Time & Date
Minimum magnitude displayed is 2.5.

Coastal Water Temperatures

Place Temperature

Stations

Nearby Weather Stations

Station Location Temp. Windchill Dew Point Humidity Wind Precip. Elev Updated Type